createdAt,value
2023-02-12T00:00:27.344Z,12.70
2023-02-12T00:02:55.516Z,14.43
2023-02-12T00:05:23.686Z,12.17
2023-02-12T00:07:53.282Z,14.27
2023-02-12T00:10:21.619Z,12.60
2023-02-12T00:12:49.878Z,14.00
2023-02-12T00:15:18.120Z,13.93
2023-02-12T00:17:46.297Z,14.73
2023-02-12T00:20:14.703Z,13.57
2023-02-12T00:22:42.900Z,13.50
2023-02-12T00:25:13.933Z,12.80
2023-02-12T00:27:42.135Z,16.60
2023-02-12T00:30:10.593Z,14.57
2023-02-12T00:32:38.777Z,15.20
2023-02-12T00:35:07.110Z,13.57
2023-02-12T00:37:35.360Z,12.80
2023-02-12T00:40:03.594Z,12.93
2023-02-12T00:42:33.133Z,11.73
2023-02-12T00:45:01.503Z,12.10
2023-02-12T00:47:29.685Z,11.47
2023-02-12T00:49:57.860Z,11.30
2023-02-12T00:52:26.024Z,10.40
2023-02-12T00:54:54.162Z,10.90
2023-02-12T00:57:22.342Z,10.47
2023-02-12T00:59:51.855Z,11.03
2023-02-12T01:02:20.048Z,9.70
2023-02-12T01:04:48.367Z,11.23
2023-02-12T01:07:16.596Z,12.13
2023-02-12T01:09:44.815Z,10.67
2023-02-12T01:12:12.966Z,12.50
2023-02-12T01:14:41.130Z,12.23
2023-02-12T01:17:11.000Z,15.10
2023-02-12T01:19:39.240Z,14.40
2023-02-12T01:22:07.631Z,13.27
2023-02-12T01:24:35.945Z,20.73
2023-02-12T01:27:04.149Z,15.90
2023-02-12T01:29:32.368Z,11.90
2023-02-12T01:32:00.644Z,10.73
2023-02-12T01:34:30.226Z,10.63
2023-02-12T01:36:58.448Z,11.00
2023-02-12T01:39:26.609Z,10.53
2023-02-12T01:41:54.825Z,10.93
2023-02-12T01:44:23.980Z,10.13
2023-02-12T01:46:56.542Z,13.00
2023-02-12T01:49:26.556Z,11.97
2023-02-12T01:52:00.242Z,12.23
2023-02-12T01:54:28.760Z,10.37
2023-02-12T01:56:57.262Z,11.30
2023-02-12T01:59:25.938Z,10.23
2023-02-12T02:01:54.837Z,10.53
2023-02-12T02:04:25.265Z,10.60
2023-02-12T02:06:55.890Z,12.03
2023-02-12T02:09:25.597Z,11.27
2023-02-12T02:12:11.289Z,10.07
2023-02-12T02:14:40.348Z,9.23
2023-02-12T02:17:16.303Z,10.77
2023-02-12T02:19:52.505Z,10.00
2023-02-12T02:22:26.451Z,11.60
2023-02-12T02:25:27.847Z,9.63
2023-02-12T02:28:04.267Z,8.97
2023-02-12T02:30:45.585Z,10.90
2023-02-12T02:33:24.197Z,11.50
2023-02-12T02:35:55.399Z,9.43
2023-02-12T02:38:27.404Z,9.30
2023-02-12T02:40:58.627Z,9.90
2023-02-12T02:43:29.948Z,9.40
2023-02-12T02:46:02.246Z,9.53
2023-02-12T02:48:33.842Z,10.00
2023-02-12T02:51:04.296Z,9.63
2023-02-12T02:53:34.559Z,9.57
2023-02-12T02:56:04.459Z,10.67
2023-02-12T02:58:35.732Z,10.10
2023-02-12T03:01:07.777Z,9.17
2023-02-12T03:03:37.728Z,9.30
2023-02-12T03:06:09.061Z,10.60
2023-02-12T03:08:39.416Z,8.53
2023-02-12T03:11:10.209Z,10.67
2023-02-12T03:13:39.809Z,10.23
2023-02-12T03:16:11.360Z,9.63
2023-02-12T03:18:43.319Z,9.50
2023-02-12T03:21:14.259Z,8.90
2023-02-12T03:23:45.640Z,9.00
2023-02-12T03:26:15.465Z,9.30
2023-02-12T03:28:43.651Z,10.73
2023-02-12T03:31:19.837Z,12.60
2023-02-12T03:33:56.202Z,9.93
2023-02-12T03:36:30.101Z,11.10
2023-02-12T03:39:05.395Z,9.83
2023-02-12T03:41:36.824Z,9.80
2023-02-12T03:44:07.791Z,11.57
2023-02-12T03:46:42.088Z,9.37
2023-02-12T03:49:14.043Z,10.67
2023-02-12T03:51:43.611Z,10.43
2023-02-12T03:54:12.828Z,10.70
2023-02-12T03:56:44.344Z,9.40
2023-02-12T03:59:12.646Z,10.80
2023-02-12T04:01:42.617Z,11.37
2023-02-12T04:04:12.572Z,9.37
2023-02-12T04:06:41.602Z,9.80
2023-02-12T04:09:11.329Z,9.33
2023-02-12T04:11:47.310Z,10.30
2023-02-12T04:14:19.823Z,8.70
2023-02-12T04:16:51.137Z,10.70
2023-02-12T04:19:26.164Z,9.70
2023-02-12T04:22:01.517Z,10.87
2023-02-12T04:24:33.879Z,10.00
2023-02-12T04:27:05.363Z,10.13
2023-02-12T04:29:37.451Z,8.90
2023-02-12T04:32:09.521Z,9.80
2023-02-12T04:34:41.543Z,9.87
2023-02-12T04:37:13.628Z,12.97
2023-02-12T04:39:43.042Z,12.13
2023-02-12T04:42:11.258Z,9.37
2023-02-12T04:44:41.097Z,9.60
2023-02-12T04:47:12.150Z,11.13
2023-02-12T04:49:40.358Z,10.20
2023-02-12T04:52:08.730Z,11.53
2023-02-12T04:54:36.950Z,12.23
2023-02-12T04:57:05.303Z,10.90
2023-02-12T04:59:33.516Z,9.47
2023-02-12T05:02:01.691Z,9.63
2023-02-12T05:04:31.282Z,8.93
2023-02-12T05:06:59.475Z,9.40
2023-02-12T05:09:27.646Z,10.63
2023-02-12T05:11:55.812Z,13.33
2023-02-12T05:14:25.911Z,11.37
2023-02-12T05:16:54.064Z,9.20
2023-02-12T05:19:22.222Z,9.87
2023-02-12T05:21:53.005Z,10.00
2023-02-12T05:24:21.176Z,9.57
2023-02-12T05:26:49.987Z,9.30
2023-02-12T05:29:18.512Z,9.50
2023-02-12T05:31:46.897Z,8.73
2023-02-12T05:34:15.203Z,9.43
2023-02-12T05:36:43.473Z,9.40
2023-02-12T05:39:13.155Z,9.50
2023-02-12T05:41:41.470Z,8.83
2023-02-12T05:44:11.885Z,9.37
2023-02-12T05:46:40.309Z,8.70
2023-02-12T05:49:08.824Z,9.70
2023-02-12T05:51:36.984Z,9.20
2023-02-12T05:54:06.814Z,8.90
2023-02-12T05:56:37.684Z,10.13
2023-02-12T05:59:07.041Z,9.47
2023-02-12T06:01:36.804Z,9.37
2023-02-12T06:04:06.413Z,10.97
2023-02-12T06:06:35.054Z,9.40
2023-02-12T06:09:03.521Z,9.20
2023-02-12T06:11:31.787Z,10.83
2023-02-12T06:14:03.321Z,9.87
2023-02-12T06:16:32.717Z,8.63
2023-02-12T06:19:02.610Z,8.20
2023-02-12T06:21:31.017Z,9.63
2023-02-12T06:23:59.217Z,7.63
2023-02-12T06:26:27.837Z,9.27
2023-02-12T06:28:56.047Z,7.80
2023-02-12T06:31:26.524Z,8.37
2023-02-12T06:33:55.520Z,9.30
2023-02-12T06:36:24.016Z,8.67
2023-02-12T06:38:52.726Z,8.17
2023-02-12T06:41:20.981Z,8.57
2023-02-12T06:43:49.435Z,9.53
2023-02-12T06:46:17.649Z,8.23
2023-02-12T06:48:47.300Z,10.83
2023-02-12T06:51:16.246Z,10.70
2023-02-12T06:53:44.713Z,9.40
2023-02-12T06:56:14.017Z,9.53
2023-02-12T06:58:42.943Z,9.30
2023-02-12T07:01:13.470Z,8.60
2023-02-12T07:03:42.199Z,9.70
2023-02-12T07:06:12.129Z,9.53
2023-02-12T07:08:40.536Z,9.37
2023-02-12T07:11:08.726Z,10.13
2023-02-12T07:13:37.257Z,11.50
2023-02-12T07:16:06.664Z,10.40
2023-02-12T07:18:35.121Z,10.40
2023-02-12T07:21:03.397Z,10.67
2023-02-12T07:23:32.947Z,9.60
2023-02-12T07:26:02.082Z,10.60
2023-02-12T07:28:33.500Z,9.97
2023-02-12T07:31:02.164Z,11.57
2023-02-12T07:33:30.364Z,10.93
2023-02-12T07:36:01.428Z,10.50
2023-02-12T07:38:30.058Z,10.40
2023-02-12T07:41:10.440Z,10.53
2023-02-12T07:43:38.888Z,9.73
2023-02-12T07:46:10.983Z,10.73
2023-02-12T07:48:39.218Z,9.53
2023-02-12T07:51:08.355Z,10.37
2023-02-12T07:53:36.940Z,11.77
2023-02-12T07:56:10.722Z,14.87
2023-02-12T07:58:39.163Z,10.73
2023-02-12T08:01:14.278Z,10.50
2023-02-12T08:03:42.514Z,13.07
2023-02-12T08:06:11.318Z,15.37
2023-02-12T08:08:39.613Z,11.00
2023-02-12T08:11:08.224Z,12.70
2023-02-12T08:13:38.171Z,11.47
2023-02-12T08:16:07.681Z,11.43
2023-02-12T08:18:35.966Z,13.10
2023-02-12T08:21:04.960Z,14.17
2023-02-12T08:23:33.476Z,14.23
2023-02-12T08:26:08.522Z,15.30
2023-02-12T08:28:38.792Z,19.87
2023-02-12T08:31:08.140Z,15.73
2023-02-12T08:33:36.424Z,17.60
2023-02-12T08:36:05.938Z,21.47
2023-02-12T08:38:34.437Z,21.70
2023-02-12T08:41:03.595Z,25.90
2023-02-12T08:43:31.798Z,23.43
2023-02-12T08:46:05.357Z,19.00
2023-02-12T08:48:33.560Z,22.20
2023-02-12T08:51:06.138Z,17.83
2023-02-12T08:53:34.403Z,19.10
2023-02-12T08:56:02.614Z,16.70
2023-02-12T08:58:30.971Z,18.20
2023-02-12T09:00:59.148Z,16.03
2023-02-12T09:03:28.826Z,16.33
2023-02-12T09:05:57.286Z,16.13
2023-02-12T09:08:25.658Z,13.13
2023-02-12T09:10:53.786Z,13.80
2023-02-12T09:13:21.928Z,16.57
2023-02-12T09:15:50.316Z,15.00
2023-02-12T09:18:18.549Z,14.87
2023-02-12T09:20:48.039Z,16.60
2023-02-12T09:23:16.496Z,17.07
2023-02-12T09:25:45.237Z,16.70
2023-02-12T09:28:13.861Z,16.90
2023-02-12T09:30:42.543Z,15.30
2023-02-12T09:33:11.706Z,15.50
2023-02-12T09:35:40.405Z,14.60
2023-02-12T09:38:10.198Z,13.07
2023-02-12T09:40:45.942Z,14.67
2023-02-12T09:43:19.331Z,16.93
2023-02-12T09:45:52.973Z,17.67
2023-02-12T09:48:33.241Z,17.47
2023-02-12T09:51:02.348Z,16.80
2023-02-12T09:53:33.584Z,15.97
2023-02-12T09:56:01.854Z,16.23
2023-02-12T09:58:32.933Z,14.77
2023-02-12T10:01:02.356Z,14.87
2023-02-12T10:03:32.181Z,14.17
2023-02-12T10:06:02.792Z,9.60
2023-02-12T10:08:42.521Z,9.67
2023-02-12T10:11:32.858Z,10.07
2023-02-12T10:14:05.785Z,10.50
2023-02-12T10:16:38.773Z,8.57
2023-02-12T10:19:14.932Z,9.40
2023-02-12T10:21:49.651Z,8.33
2023-02-12T10:24:31.411Z,7.67
2023-02-12T10:27:00.934Z,8.23
2023-02-12T10:29:30.827Z,7.20
2023-02-12T10:32:02.087Z,5.80
2023-02-12T10:34:33.182Z,4.87
2023-02-12T10:37:04.030Z,4.90
2023-02-12T10:39:36.878Z,4.83
2023-02-12T10:42:09.758Z,5.60
2023-02-12T10:44:37.966Z,4.97
2023-02-12T10:47:08.514Z,5.40
2023-02-12T10:49:36.709Z,4.90
2023-02-12T10:52:13.488Z,4.20
2023-02-12T10:54:44.700Z,4.80
2023-02-12T10:57:15.102Z,5.40
2023-02-12T10:59:43.700Z,5.50
2023-02-12T11:02:22.795Z,5.70
2023-02-12T11:04:51.731Z,6.43
2023-02-12T11:07:20.268Z,5.90
2023-02-12T11:09:50.613Z,5.47
2023-02-12T11:12:22.670Z,5.50
2023-02-12T11:14:51.555Z,6.40
2023-02-12T11:17:24.552Z,5.27
2023-02-12T11:20:03.834Z,5.60
2023-02-12T11:22:32.183Z,4.90
2023-02-12T11:25:04.053Z,5.40
2023-02-12T11:27:33.011Z,4.40
2023-02-12T11:30:13.089Z,4.63
2023-02-12T11:32:41.284Z,5.77
2023-02-12T11:35:14.873Z,4.10
2023-02-12T11:37:43.983Z,3.97
2023-02-12T11:40:21.094Z,5.80
2023-02-12T11:42:50.922Z,5.20
2023-02-12T11:45:20.211Z,5.10
2023-02-12T11:47:49.202Z,5.10
2023-02-12T11:50:26.005Z,4.70
2023-02-12T11:52:55.546Z,4.47
2023-02-12T11:55:26.493Z,4.60
2023-02-12T11:57:56.129Z,5.53
2023-02-12T12:00:26.965Z,5.60
2023-02-12T12:02:58.909Z,4.87
2023-02-12T12:05:30.031Z,5.10
2023-02-12T12:08:00.327Z,4.90
2023-02-12T12:10:40.504Z,4.70
2023-02-12T12:13:13.800Z,5.13
2023-02-12T12:16:01.947Z,5.47
2023-02-12T12:18:50.560Z,4.77
2023-02-12T12:21:21.649Z,5.17
2023-02-12T12:23:54.164Z,4.87
2023-02-12T12:26:25.919Z,5.10
2023-02-12T12:28:57.144Z,5.17
2023-02-12T12:31:27.708Z,5.40
2023-02-12T12:34:01.102Z,4.73
2023-02-12T12:36:48.096Z,5.47
2023-02-12T12:39:19.679Z,4.60
2023-02-12T12:41:56.445Z,4.47
2023-02-12T12:44:30.996Z,4.33
2023-02-12T12:47:05.298Z,4.30
2023-02-12T12:50:00.263Z,4.50
2023-02-12T12:52:43.230Z,3.93
2023-02-12T12:55:20.119Z,4.23
2023-02-12T12:57:53.094Z,4.37
2023-02-12T13:00:29.934Z,4.30
2023-02-12T13:03:28.602Z,4.33
2023-02-12T13:06:12.913Z,5.43
2023-02-12T13:08:58.703Z,4.50
2023-02-12T13:11:35.945Z,3.90
2023-02-12T13:14:10.418Z,4.07
2023-02-12T13:16:42.628Z,4.60
2023-02-12T13:19:15.633Z,4.67
2023-02-12T13:21:48.314Z,4.30
2023-02-12T13:24:24.520Z,3.90
2023-02-12T13:26:55.271Z,4.10
2023-02-12T13:29:27.966Z,3.63
2023-02-12T13:31:57.652Z,3.57
2023-02-12T13:34:28.586Z,3.10
2023-02-12T13:36:56.913Z,3.13
2023-02-12T13:39:29.473Z,6.70
2023-02-12T13:42:04.238Z,4.23
2023-02-12T13:44:37.239Z,5.47
2023-02-12T13:47:10.511Z,4.13
2023-02-12T13:49:43.209Z,3.60
2023-02-12T13:52:15.421Z,3.63
2023-02-12T13:54:49.365Z,3.13
2023-02-12T13:57:19.220Z,3.40
2023-02-12T13:59:53.673Z,2.30
2023-02-12T14:02:49.487Z,3.87
2023-02-12T14:05:32.681Z,2.77
2023-02-12T14:08:03.473Z,2.97
2023-02-12T14:10:32.874Z,2.90
2023-02-12T14:13:11.944Z,3.00
2023-02-12T14:15:44.525Z,2.83
2023-02-12T14:18:27.413Z,2.40
2023-02-12T14:21:14.043Z,3.90
2023-02-12T14:23:43.016Z,3.90
2023-02-12T14:26:12.799Z,4.00
2023-02-12T14:28:48.074Z,4.60
2023-02-12T14:31:31.454Z,5.97
2023-02-12T14:34:18.318Z,5.63
2023-02-12T14:36:46.946Z,7.50
2023-02-12T14:39:31.046Z,6.10
2023-02-12T14:42:20.831Z,4.20
2023-02-12T14:44:50.383Z,4.43
2023-02-12T14:47:44.481Z,5.60
2023-02-12T14:50:19.860Z,5.70
2023-02-12T14:52:52.986Z,4.50
2023-02-12T14:55:22.887Z,4.53
2023-02-12T14:57:51.326Z,4.77
2023-02-12T15:00:24.834Z,4.50
2023-02-12T15:02:54.647Z,5.40
2023-02-12T15:05:27.126Z,6.23
2023-02-12T15:07:58.246Z,6.00
2023-02-12T15:10:29.378Z,5.67
2023-02-12T15:13:03.517Z,5.20
2023-02-12T15:15:34.747Z,5.27
2023-02-12T15:18:06.639Z,6.63
2023-02-12T15:20:40.041Z,5.30
2023-02-12T15:23:23.087Z,7.10
2023-02-12T15:25:52.194Z,7.13
2023-02-12T15:28:22.644Z,6.43
2023-02-12T15:30:51.099Z,6.20
2023-02-12T15:33:24.617Z,7.30
2023-02-12T15:35:54.585Z,7.27
2023-02-12T15:38:24.890Z,6.53
2023-02-12T15:40:56.548Z,7.27
2023-02-12T15:43:28.853Z,7.40
2023-02-12T15:45:57.412Z,6.40
2023-02-12T15:48:31.301Z,7.07
2023-02-12T15:51:04.132Z,7.80
2023-02-12T15:53:32.499Z,7.77
2023-02-12T15:56:01.249Z,7.70
2023-02-12T15:58:30.230Z,7.70
2023-02-12T16:01:02.691Z,7.13
2023-02-12T16:03:32.346Z,6.77
2023-02-12T16:06:05.212Z,7.10
2023-02-12T16:08:34.718Z,8.77
2023-02-12T16:11:13.644Z,7.27
2023-02-12T16:13:44.214Z,11.53
2023-02-12T16:16:20.351Z,7.87
2023-02-12T16:18:48.739Z,6.50
2023-02-12T16:21:19.734Z,7.80
2023-02-12T16:23:48.962Z,10.43
2023-02-12T16:26:19.122Z,19.80
2023-02-12T16:28:48.718Z,110.47
2023-02-12T16:31:17.708Z,127.30
2023-02-12T16:33:48.589Z,43.20
2023-02-12T16:36:30.359Z,11.73
2023-02-12T16:38:59.492Z,9.10
2023-02-12T16:41:28.353Z,7.43
2023-02-12T16:44:15.144Z,6.80
2023-02-12T16:46:47.224Z,7.07
2023-02-12T16:49:17.451Z,6.90
2023-02-12T16:51:47.664Z,10.80
2023-02-12T16:54:30.128Z,7.77
2023-02-12T16:56:58.787Z,7.20
2023-02-12T16:59:27.362Z,8.43
2023-02-12T17:01:59.763Z,7.10
2023-02-12T17:04:27.931Z,7.23
2023-02-12T17:06:57.906Z,7.27
2023-02-12T17:09:26.215Z,8.10
2023-02-12T17:11:54.380Z,6.60
2023-02-12T17:14:22.709Z,7.67
2023-02-12T17:16:51.218Z,7.10
2023-02-12T17:19:19.441Z,7.43
2023-02-12T17:21:49.505Z,7.37
2023-02-12T17:24:21.405Z,6.50
2023-02-12T17:26:50.501Z,7.03
2023-02-12T17:29:19.269Z,7.30
2023-02-12T17:31:47.957Z,16.10
2023-02-12T17:34:16.682Z,20.67
2023-02-12T17:36:44.952Z,70.70
2023-02-12T17:39:14.120Z,69.30
2023-02-12T17:41:44.151Z,41.93
2023-02-12T17:44:13.901Z,61.03
2023-02-12T17:46:42.244Z,47.47
2023-02-12T17:49:10.467Z,40.30
2023-02-12T17:51:39.064Z,38.23
2023-02-12T17:54:07.537Z,30.07
2023-02-12T17:56:35.780Z,15.20
2023-02-12T17:59:05.325Z,8.40
2023-02-12T18:01:34.526Z,6.73
2023-02-12T18:04:02.875Z,8.83
2023-02-12T18:06:31.963Z,10.97
2023-02-12T18:09:01.700Z,8.23
2023-02-12T18:11:30.311Z,12.63
2023-02-12T18:13:59.234Z,10.13
2023-02-12T18:16:29.492Z,8.47
2023-02-12T18:18:59.858Z,8.30
2023-02-12T18:21:28.104Z,9.40
2023-02-12T18:23:56.361Z,10.17
2023-02-12T18:26:24.885Z,9.43
2023-02-12T18:28:53.781Z,10.40
2023-02-12T18:31:22.471Z,33.90
2023-02-12T18:33:52.308Z,15.90
2023-02-12T18:36:21.203Z,11.93
2023-02-12T18:38:50.669Z,12.80
2023-02-12T18:41:19.652Z,9.90
2023-02-12T18:43:47.896Z,10.23
2023-02-12T18:46:16.947Z,11.30
2023-02-12T18:48:45.586Z,13.63
2023-02-12T18:51:15.919Z,15.70
2023-02-12T18:53:44.169Z,17.03
2023-02-12T18:56:13.134Z,15.27
2023-02-12T18:58:41.572Z,13.87
2023-02-12T19:01:16.709Z,15.30
2023-02-12T19:03:45.502Z,13.70
2023-02-12T19:06:15.018Z,15.80
2023-02-12T19:08:43.217Z,17.30
2023-02-12T19:11:13.393Z,18.00
2023-02-12T19:13:45.358Z,16.80
2023-02-12T19:16:15.121Z,17.43
2023-02-12T19:18:43.434Z,14.23
2023-02-12T19:21:16.545Z,17.80
2023-02-12T19:23:47.171Z,16.77
2023-02-12T19:26:17.411Z,15.77
2023-02-12T19:28:46.961Z,18.27
2023-02-12T19:31:20.044Z,17.60
2023-02-12T19:33:48.778Z,15.97
2023-02-12T19:36:18.238Z,16.00
2023-02-12T19:38:48.041Z,15.53
2023-02-12T19:41:17.396Z,17.80
2023-02-12T19:43:45.680Z,18.03
2023-02-12T19:46:14.974Z,16.83
2023-02-12T19:48:43.806Z,21.47
2023-02-12T19:51:14.854Z,21.70
2023-02-12T19:53:43.055Z,16.03
2023-02-12T19:56:12.689Z,16.83
2023-02-12T19:58:40.884Z,17.57
2023-02-12T20:01:10.408Z,16.37
2023-02-12T20:03:38.710Z,18.77
2023-02-12T20:06:09.486Z,16.97
2023-02-12T20:08:38.123Z,16.90
2023-02-12T20:11:07.340Z,16.30
2023-02-12T20:13:37.187Z,15.00
2023-02-12T20:16:05.505Z,19.53
2023-02-12T20:18:34.114Z,17.87
2023-02-12T20:21:02.795Z,18.40
2023-02-12T20:23:31.054Z,16.03
2023-02-12T20:25:59.302Z,16.23
2023-02-12T20:28:27.692Z,20.37
2023-02-12T20:30:57.631Z,15.80
2023-02-12T20:33:26.189Z,17.33
2023-02-12T20:35:57.835Z,19.93
2023-02-12T20:38:26.032Z,18.70
2023-02-12T20:40:54.667Z,18.43
2023-02-12T20:43:23.099Z,21.33
2023-02-12T20:45:51.281Z,18.17
2023-02-12T20:48:21.920Z,16.80
2023-02-12T20:50:50.060Z,22.10
2023-02-12T20:53:18.277Z,17.43
2023-02-12T20:55:46.504Z,15.63
2023-02-12T20:58:14.694Z,17.33
2023-02-12T21:00:43.198Z,16.63
2023-02-12T21:03:11.377Z,15.33
2023-02-12T21:05:40.885Z,15.97
2023-02-12T21:08:09.069Z,16.20
2023-02-12T21:10:37.259Z,19.30
2023-02-12T21:13:05.724Z,18.70
2023-02-12T21:15:33.928Z,16.70
2023-02-12T21:18:02.085Z,17.20
2023-02-12T21:20:30.307Z,18.37
2023-02-12T21:22:59.897Z,18.70
2023-02-12T21:25:28.051Z,19.70
2023-02-12T21:27:56.227Z,19.40
2023-02-12T21:30:24.986Z,19.50
2023-02-12T21:32:53.610Z,19.80
2023-02-12T21:35:21.762Z,18.53
2023-02-12T21:37:49.948Z,19.00
2023-02-12T21:40:19.915Z,19.20
2023-02-12T21:42:48.117Z,20.07
2023-02-12T21:45:16.459Z,18.13
2023-02-12T21:47:44.698Z,19.43
2023-02-12T21:50:14.061Z,19.70
2023-02-12T21:52:42.230Z,17.10
2023-02-12T21:55:10.449Z,21.50
2023-02-12T21:57:39.969Z,20.47
2023-02-12T22:00:08.932Z,20.60
2023-02-12T22:02:37.175Z,17.73
2023-02-12T22:05:05.474Z,20.57
2023-02-12T22:07:33.627Z,18.57
2023-02-12T22:10:01.976Z,19.53
2023-02-12T22:12:32.316Z,19.60
2023-02-12T22:15:01.970Z,20.97
2023-02-12T22:17:30.125Z,19.87
2023-02-12T22:19:58.287Z,19.67
2023-02-12T22:22:27.110Z,22.50
2023-02-12T22:24:59.444Z,18.73
2023-02-12T22:27:27.863Z,19.90
2023-02-12T22:29:56.344Z,18.57
2023-02-12T22:32:26.190Z,18.53
2023-02-12T22:34:54.829Z,17.33
2023-02-12T22:37:23.418Z,18.60
2023-02-12T22:39:51.764Z,18.50
2023-02-12T22:42:20.249Z,18.03
2023-02-12T22:44:48.594Z,17.07
2023-02-12T22:47:16.898Z,18.73
2023-02-12T22:49:46.832Z,16.47
2023-02-12T22:52:15.276Z,15.30
2023-02-12T22:54:43.597Z,15.00
2023-02-12T22:57:11.884Z,14.10
2023-02-12T22:59:40.398Z,14.03
2023-02-12T23:02:08.621Z,15.53
2023-02-12T23:04:37.547Z,13.80
2023-02-12T23:07:07.113Z,13.37
2023-02-12T23:09:35.496Z,14.87
2023-02-12T23:12:07.422Z,17.63
2023-02-12T23:14:36.053Z,14.70
2023-02-12T23:17:04.951Z,14.03
2023-02-12T23:19:33.331Z,15.90
2023-02-12T23:22:02.110Z,15.73
2023-02-12T23:24:31.675Z,15.00
2023-02-12T23:26:59.880Z,13.70
2023-02-12T23:29:28.045Z,14.30
2023-02-12T23:31:56.195Z,14.87
2023-02-12T23:34:24.414Z,14.30
2023-02-12T23:36:52.578Z,15.93
2023-02-12T23:39:20.724Z,14.13
2023-02-12T23:41:50.295Z,17.20
2023-02-12T23:44:18.497Z,15.63
2023-02-12T23:46:47.750Z,15.47
2023-02-12T23:49:15.953Z,16.10
2023-02-12T23:51:44.472Z,16.30
2023-02-12T23:54:12.676Z,15.30
2023-02-12T23:56:40.874Z,16.50
2023-02-12T23:59:10.421Z,16.03
